Time;durP1;ratioP1;P1;durP2;ratioP2;P2;SDS_P1;SDS_P2;PMS_P1;PMS_P2;Temp;Humidity;BMP_temperature;BMP_pressure;BME280_temperature;BME280_humidity;BME280_pressure;Samples;Min_cycle;Max_cycle;Signal;HPM_P1;HPM_P2
2023/12/03 00:00:30;;;;;;;17.47;10.93;;;;;;;;;;5057925;28;20431;-70
2023/12/03 00:02:57;;;;;;;17.40;10.55;;;;;;;;;;5046937;28;20429;-70
2023/12/03 00:05:28;;;;;;;17.25;10.57;;;;;;;;;;5047441;28;20456;-70
2023/12/03 00:07:57;;;;;;;14.48;9.50;;;;;;;;;;5047020;28;20767;-70
2023/12/03 00:10:24;;;;;;;15.68;10.30;;;;;;;;;;5058402;28;20858;-70
2023/12/03 00:12:51;;;;;;;16.08;9.88;;;;;;;;;;5065247;28;20427;-70
2023/12/03 00:15:18;;;;;;;14.85;9.98;;;;;;;;;;5055814;28;20437;-70
2023/12/03 00:17:46;;;;;;;14.13;9.55;;;;;;;;;;5057388;28;20461;-70
2023/12/03 00:20:13;;;;;;;17.27;10.07;;;;;;;;;;5056856;28;20436;-70
2023/12/03 00:22:40;;;;;;;14.10;9.43;;;;;;;;;;5030712;28;20477;-71
2023/12/03 00:25:08;;;;;;;14.80;9.48;;;;;;;;;;5051033;28;20520;-70
2023/12/03 00:27:35;;;;;;;14.32;9.90;;;;;;;;;;5049564;28;21173;-70
2023/12/03 00:30:03;;;;;;;14.43;9.68;;;;;;;;;;5045251;28;20917;-70
2023/12/03 00:32:33;;;;;;;16.27;9.63;;;;;;;;;;5066605;28;20423;-70
2023/12/03 00:35:00;;;;;;;14.93;9.75;;;;;;;;;;5066226;28;20479;-70
2023/12/03 00:37:28;;;;;;;16.45;10.27;;;;;;;;;;5066644;28;20437;-70
2023/12/03 00:39:55;;;;;;;16.10;10.23;;;;;;;;;;5047595;28;20427;-70
2023/12/03 00:42:22;;;;;;;15.38;10.30;;;;;;;;;;5048045;28;20922;-70
2023/12/03 00:44:49;;;;;;;15.88;9.98;;;;;;;;;;5042614;28;20921;-70
2023/12/03 00:47:17;;;;;;;17.00;10.50;;;;;;;;;;5048850;28;20425;-70
2023/12/03 00:49:44;;;;;;;18.53;10.97;;;;;;;;;;5057771;28;20467;-70
2023/12/03 00:52:12;;;;;;;16.60;10.30;;;;;;;;;;5050384;28;20508;-70
2023/12/03 00:54:39;;;;;;;19.27;11.40;;;;;;;;;;5046713;28;20429;-70
2023/12/03 00:57:06;;;;;;;19.27;11.60;;;;;;;;;;5044836;28;20898;-70
2023/12/03 00:59:33;;;;;;;18.10;11.25;;;;;;;;;;5057870;28;20460;-70
2023/12/03 01:02:01;;;;;;;16.83;10.63;;;;;;;;;;5052045;28;20984;-70
2023/12/03 01:04:28;;;;;;;19.97;10.97;;;;;;;;;;5054749;28;20433;-70
2023/12/03 01:06:55;;;;;;;18.52;11.73;;;;;;;;;;5028474;28;20449;-70
2023/12/03 01:09:30;;;;;;;17.50;11.02;;;;;;;;;;5042886;28;21108;-70
2023/12/03 01:11:57;;;;;;;17.80;11.07;;;;;;;;;;5060855;28;20444;-70
2023/12/03 01:14:25;;;;;;;17.90;10.93;;;;;;;;;;5049196;28;20464;-70
2023/12/03 01:16:52;;;;;;;19.17;11.18;;;;;;;;;;5040834;28;20436;-70
2023/12/03 01:19:19;;;;;;;17.52;10.80;;;;;;;;;;5055598;28;20496;-70
2023/12/03 01:21:46;;;;;;;18.58;11.55;;;;;;;;;;5061376;28;20427;-70
2023/12/03 01:24:17;;;;;;;17.10;10.43;;;;;;;;;;5055737;28;20439;-70
2023/12/03 01:26:44;;;;;;;19.02;11.38;;;;;;;;;;5062116;28;20429;-70
2023/12/03 01:29:12;;;;;;;17.77;11.25;;;;;;;;;;5033436;28;20425;-70
2023/12/03 01:31:39;;;;;;;16.90;11.45;;;;;;;;;;5049186;28;20515;-70
2023/12/03 01:34:07;;;;;;;19.90;12.03;;;;;;;;;;5057702;28;20525;-70
2023/12/03 01:36:36;;;;;;;18.92;11.63;;;;;;;;;;5064930;28;20491;-70
2023/12/03 01:39:05;;;;;;;17.63;11.52;;;;;;;;;;5012204;28;20443;-69
2023/12/03 01:41:32;;;;;;;18.63;11.73;;;;;;;;;;5048383;28;20439;-70
2023/12/03 01:44:02;;;;;;;20.13;11.47;;;;;;;;;;5039575;28;20483;-70
2023/12/03 01:46:29;;;;;;;19.58;11.52;;;;;;;;;;5064944;28;20435;-70
2023/12/03 01:49:00;;;;;;;17.85;11.32;;;;;;;;;;5044696;28;20433;-70
2023/12/03 01:51:27;;;;;;;17.60;11.25;;;;;;;;;;5042651;28;20431;-69
2023/12/03 01:54:00;;;;;;;16.92;10.57;;;;;;;;;;5049600;28;20927;-69
2023/12/03 01:56:30;;;;;;;20.42;12.00;;;;;;;;;;5044526;28;21200;-70
2023/12/03 01:59:00;;;;;;;19.00;11.75;;;;;;;;;;5037843;28;20429;-69
2023/12/03 02:01:28;;;;;;;17.73;11.47;;;;;;;;;;5064383;28;20622;-69
2023/12/03 02:03:55;;;;;;;18.65;11.48;;;;;;;;;;5059602;28;20515;-69
2023/12/03 02:06:22;;;;;;;17.80;11.68;;;;;;;;;;5067558;28;20492;-69
2023/12/03 02:08:50;;;;;;;16.40;11.18;;;;;;;;;;5038534;28;20437;-69
2023/12/03 02:11:17;;;;;;;18.65;10.95;;;;;;;;;;5048938;28;20487;-69
2023/12/03 02:13:47;;;;;;;18.80;11.43;;;;;;;;;;5045915;28;20487;-69
2023/12/03 02:16:14;;;;;;;15.73;11.00;;;;;;;;;;5054034;28;20455;-69
2023/12/03 02:18:45;;;;;;;17.55;11.32;;;;;;;;;;5042227;28;20425;-69
2023/12/03 02:21:12;;;;;;;16.90;11.32;;;;;;;;;;5041888;28;20433;-69
2023/12/03 02:23:42;;;;;;;16.63;10.75;;;;;;;;;;5051836;28;20843;-70
2023/12/03 02:26:09;;;;;;;16.52;11.23;;;;;;;;;;5062694;28;20429;-69
2023/12/03 02:28:36;;;;;;;16.05;10.80;;;;;;;;;;5056319;28;20427;-69
2023/12/03 02:31:03;;;;;;;18.67;11.00;;;;;;;;;;5045790;28;20431;-69
2023/12/03 02:33:37;;;;;;;18.75;11.65;;;;;;;;;;5062222;28;20505;-70
2023/12/03 02:36:05;;;;;;;17.92;11.23;;;;;;;;;;5048895;28;20436;-69
2023/12/03 02:38:32;;;;;;;18.90;12.45;;;;;;;;;;5056535;28;20516;-69
2023/12/03 02:41:01;;;;;;;17.05;11.23;;;;;;;;;;5054930;28;20456;-69
2023/12/03 02:43:29;;;;;;;19.42;11.80;;;;;;;;;;5047403;28;21010;-69
2023/12/03 02:45:56;;;;;;;19.13;12.23;;;;;;;;;;5048307;28;20800;-69
2023/12/03 02:48:23;;;;;;;20.97;12.27;;;;;;;;;;5062381;28;20781;-70
2023/12/03 02:50:54;;;;;;;19.92;12.02;;;;;;;;;;5041158;28;20429;-69
2023/12/03 02:53:21;;;;;;;19.38;12.05;;;;;;;;;;5048527;28;20432;-69
2023/12/03 02:55:50;;;;;;;21.48;12.60;;;;;;;;;;5040854;28;20432;-70
2023/12/03 02:58:18;;;;;;;20.38;12.77;;;;;;;;;;5048296;28;20788;-70
2023/12/03 03:00:45;;;;;;;20.47;12.63;;;;;;;;;;5044351;28;20439;-69
2023/12/03 03:03:12;;;;;;;23.27;12.80;;;;;;;;;;5055779;28;20913;-69
2023/12/03 03:05:39;;;;;;;21.52;12.95;;;;;;;;;;5054597;28;20435;-69
2023/12/03 03:08:07;;;;;;;23.65;13.75;;;;;;;;;;5068035;28;20437;-69
2023/12/03 03:10:34;;;;;;;26.23;14.55;;;;;;;;;;5049080;28;20498;-69
2023/12/03 03:13:02;;;;;;;22.97;13.73;;;;;;;;;;5050099;28;21005;-69
2023/12/03 03:15:29;;;;;;;24.50;13.75;;;;;;;;;;5052164;28;20426;-69
2023/12/03 03:17:56;;;;;;;25.25;14.20;;;;;;;;;;5040737;28;20435;-69
2023/12/03 03:20:24;;;;;;;26.70;14.93;;;;;;;;;;5047894;28;20436;-69
2023/12/03 03:22:51;;;;;;;27.48;15.55;;;;;;;;;;5039656;28;20436;-69
2023/12/03 03:25:21;;;;;;;26.33;14.93;;;;;;;;;;5032952;28;20907;-69
2023/12/03 03:27:48;;;;;;;26.50;14.90;;;;;;;;;;5065387;28;20518;-69
2023/12/03 03:30:22;;;;;;;26.60;15.15;;;;;;;;;;5051482;28;20906;-69
2023/12/03 03:32:49;;;;;;;30.53;16.70;;;;;;;;;;5070058;28;20509;-69
2023/12/03 03:35:17;;;;;;;30.23;16.38;;;;;;;;;;5050061;28;21061;-69
2023/12/03 03:37:44;;;;;;;29.35;16.33;;;;;;;;;;5035210;28;20425;-69
2023/12/03 03:40:11;;;;;;;28.67;15.85;;;;;;;;;;5047033;28;20850;-69
2023/12/03 03:42:41;;;;;;;28.20;15.77;;;;;;;;;;5050396;28;20491;-69
2023/12/03 03:45:11;;;;;;;26.08;15.23;;;;;;;;;;5061120;28;20435;-69
2023/12/03 03:47:38;;;;;;;28.20;15.65;;;;;;;;;;5063610;28;20906;-69
2023/12/03 03:50:06;;;;;;;28.13;15.70;;;;;;;;;;5054909;28;20514;-69
2023/12/03 03:52:36;;;;;;;27.08;15.20;;;;;;;;;;5048129;28;21100;-69
2023/12/03 03:55:03;;;;;;;28.02;15.18;;;;;;;;;;5051209;28;20511;-69
2023/12/03 03:57:31;;;;;;;25.55;14.75;;;;;;;;;;5071050;28;20831;-69
2023/12/03 03:59:58;;;;;;;25.73;15.10;;;;;;;;;;5036260;28;20952;-69
2023/12/03 04:02:25;;;;;;;26.20;15.88;;;;;;;;;;5055947;28;20485;-69
2023/12/03 04:04:52;;;;;;;28.30;15.45;;;;;;;;;;5057879;28;21009;-69
2023/12/03 04:07:19;;;;;;;28.98;16.17;;;;;;;;;;5059072;28;20979;-69
2023/12/03 04:09:48;;;;;;;28.25;15.63;;;;;;;;;;5047958;28;20927;-69
2023/12/03 04:12:15;;;;;;;28.95;16.40;;;;;;;;;;5049070;28;20496;-69
2023/12/03 04:14:45;;;;;;;29.47;16.63;;;;;;;;;;5058089;28;20433;-69
2023/12/03 04:17:12;;;;;;;30.27;17.17;;;;;;;;;;5041813;28;20474;-69
2023/12/03 04:19:39;;;;;;;33.90;16.98;;;;;;;;;;5054946;28;20519;-69
2023/12/03 04:22:09;;;;;;;32.08;17.38;;;;;;;;;;5056953;28;20433;-69
2023/12/03 04:24:36;;;;;;;34.38;17.92;;;;;;;;;;5058567;28;20934;-69
2023/12/03 04:27:04;;;;;;;33.40;17.95;;;;;;;;;;5051536;28;20439;-69
2023/12/03 04:29:31;;;;;;;32.70;17.48;;;;;;;;;;5050826;28;21157;-69
2023/12/03 04:31:58;;;;;;;33.22;17.02;;;;;;;;;;5049021;28;20816;-69
2023/12/03 04:34:25;;;;;;;30.65;15.68;;;;;;;;;;5050724;28;20878;-69
2023/12/03 04:36:53;;;;;;;34.08;16.15;;;;;;;;;;5060822;28;20420;-69
2023/12/03 04:39:20;;;;;;;31.77;16.45;;;;;;;;;;5058292;28;20426;-69
2023/12/03 04:41:47;;;;;;;32.28;17.02;;;;;;;;;;5046524;28;20434;-69
2023/12/03 04:44:14;;;;;;;34.37;17.70;;;;;;;;;;5050010;28;20425;-69
2023/12/03 04:46:41;;;;;;;36.33;18.15;;;;;;;;;;5049699;28;20521;-69
2023/12/03 04:49:09;;;;;;;37.10;18.43;;;;;;;;;;5069060;28;20438;-69
2023/12/03 04:51:36;;;;;;;36.28;18.55;;;;;;;;;;5070027;28;20439;-69
2023/12/03 04:54:04;;;;;;;36.50;18.40;;;;;;;;;;5057035;28;20514;-69
2023/12/03 04:56:31;;;;;;;37.55;19.15;;;;;;;;;;5055452;28;20488;-69
2023/12/03 04:58:58;;;;;;;41.22;20.13;;;;;;;;;;5046661;28;20943;-69
2023/12/03 05:01:25;;;;;;;41.85;20.88;;;;;;;;;;5049992;28;20439;-69
2023/12/03 05:03:53;;;;;;;43.97;20.60;;;;;;;;;;5047696;28;20436;-69
2023/12/03 05:06:20;;;;;;;45.65;20.20;;;;;;;;;;5053921;28;20431;-68
2023/12/03 05:08:50;;;;;;;44.58;21.08;;;;;;;;;;5056079;28;20432;-69
2023/12/03 05:11:17;;;;;;;39.75;19.75;;;;;;;;;;5049547;28;20433;-68
2023/12/03 05:13:44;;;;;;;41.53;20.65;;;;;;;;;;5050126;28;20793;-69
2023/12/03 05:16:12;;;;;;;41.80;20.83;;;;;;;;;;5044970;28;20429;-68
2023/12/03 05:18:39;;;;;;;39.33;19.80;;;;;;;;;;5055777;28;20431;-68
2023/12/03 05:21:07;;;;;;;42.97;21.63;;;;;;;;;;5027034;28;20432;-68
2023/12/03 05:23:34;;;;;;;41.15;20.70;;;;;;;;;;5060838;28;20512;-68
2023/12/03 05:26:01;;;;;;;40.90;20.30;;;;;;;;;;5048112;28;20507;-68
2023/12/03 05:28:28;;;;;;;38.43;18.90;;;;;;;;;;5052193;28;20477;-68
2023/12/03 05:30:59;;;;;;;39.22;20.00;;;;;;;;;;5040434;28;21011;-68
2023/12/03 05:33:26;;;;;;;39.43;19.53;;;;;;;;;;5053840;28;20429;-69
2023/12/03 05:35:56;;;;;;;38.15;19.35;;;;;;;;;;5030458;28;20962;-69
2023/12/03 05:38:23;;;;;;;40.03;19.60;;;;;;;;;;5051626;28;20424;-68
2023/12/03 05:40:50;;;;;;;38.40;19.60;;;;;;;;;;5051816;28;20508;-68
2023/12/03 05:43:18;;;;;;;37.88;18.83;;;;;;;;;;5049315;28;20781;-68
2023/12/03 05:45:45;;;;;;;38.28;19.65;;;;;;;;;;5059911;28;20427;-68
2023/12/03 05:48:12;;;;;;;39.22;18.95;;;;;;;;;;5059385;28;20433;-68
2023/12/03 05:50:40;;;;;;;40.78;20.35;;;;;;;;;;5044052;28;20774;-68
2023/12/03 05:53:07;;;;;;;38.50;19.63;;;;;;;;;;5048495;28;20520;-68
2023/12/03 05:55:34;;;;;;;40.03;19.42;;;;;;;;;;5055548;28;20432;-68
2023/12/03 05:58:05;;;;;;;41.40;20.58;;;;;;;;;;5040069;28;20433;-68
2023/12/03 06:00:32;;;;;;;36.45;18.88;;;;;;;;;;5030601;28;20961;-68
2023/12/03 06:02:59;;;;;;;40.38;19.95;;;;;;;;;;5029281;28;20489;-68
2023/12/03 06:05:26;;;;;;;42.53;19.97;;;;;;;;;;5057086;28;20507;-68
2023/12/03 06:07:54;;;;;;;41.30;19.90;;;;;;;;;;5044309;28;20866;-68
2023/12/03 06:10:21;;;;;;;42.55;20.58;;;;;;;;;;5055862;28;21038;-68
2023/12/03 06:12:48;;;;;;;45.50;20.98;;;;;;;;;;5048835;28;20479;-68
2023/12/03 06:15:15;;;;;;;48.38;21.38;;;;;;;;;;5059969;28;20427;-68
2023/12/03 06:17:43;;;;;;;49.75;21.38;;;;;;;;;;5055657;28;20848;-68
2023/12/03 06:20:10;;;;;;;48.20;21.47;;;;;;;;;;5047377;28;20432;-68
2023/12/03 06:22:40;;;;;;;47.80;21.70;;;;;;;;;;5055346;28;20459;-68
2023/12/03 06:25:08;;;;;;;49.42;22.13;;;;;;;;;;5031437;28;20433;-68
2023/12/03 06:27:35;;;;;;;49.10;22.17;;;;;;;;;;5056515;28;20526;-68
2023/12/03 06:30:03;;;;;;;43.78;20.25;;;;;;;;;;5041305;28;20437;-68
2023/12/03 06:32:30;;;;;;;43.85;20.92;;;;;;;;;;5054103;28;20425;-68
2023/12/03 06:34:57;;;;;;;41.28;19.60;;;;;;;;;;5053980;28;20434;-68
2023/12/03 06:37:24;;;;;;;45.97;20.42;;;;;;;;;;5054547;28;20432;-68
2023/12/03 06:39:52;;;;;;;45.40;21.00;;;;;;;;;;5061932;28;20472;-68
2023/12/03 06:42:19;;;;;;;45.65;21.20;;;;;;;;;;5059584;28;20931;-68
2023/12/03 06:44:47;;;;;;;48.72;21.15;;;;;;;;;;5059652;28;20469;-68
2023/12/03 06:47:14;;;;;;;46.58;20.80;;;;;;;;;;5060545;28;20840;-67
2023/12/03 06:49:42;;;;;;;47.33;21.02;;;;;;;;;;5059746;28;20827;-67
2023/12/03 06:52:09;;;;;;;52.88;23.20;;;;;;;;;;5052342;28;20491;-68
2023/12/03 06:54:37;;;;;;;50.83;22.35;;;;;;;;;;5058311;28;20444;-68
2023/12/03 06:57:10;;;;;;;48.33;21.20;;;;;;;;;;5060055;28;20471;-68
2023/12/03 06:59:37;;;;;;;45.65;20.95;;;;;;;;;;5050855;28;20491;-68
2023/12/03 07:02:07;;;;;;;47.70;21.52;;;;;;;;;;5049043;28;20463;-68
2023/12/03 07:04:34;;;;;;;46.73;20.90;;;;;;;;;;5044421;28;20425;-68
2023/12/03 07:07:04;;;;;;;43.10;20.37;;;;;;;;;;5052898;28;20577;-68
2023/12/03 07:09:32;;;;;;;47.45;21.48;;;;;;;;;;5064763;28;20471;-68
2023/12/03 07:12:06;;;;;;;44.08;19.73;;;;;;;;;;5043893;28;20433;-68
2023/12/03 07:14:34;;;;;;;41.35;19.92;;;;;;;;;;5042805;28;20965;-67
2023/12/03 07:17:01;;;;;;;38.60;19.48;;;;;;;;;;5053359;28;20426;-68
2023/12/03 07:19:28;;;;;;;36.28;18.65;;;;;;;;;;5063727;28;20423;-68
2023/12/03 07:21:55;;;;;;;39.38;18.90;;;;;;;;;;5042646;28;20437;-68
2023/12/03 07:24:23;;;;;;;38.50;18.35;;;;;;;;;;5049367;28;20441;-67
2023/12/03 07:26:53;;;;;;;39.33;19.63;;;;;;;;;;5046169;28;20854;-67
2023/12/03 07:29:20;;;;;;;37.58;17.92;;;;;;;;;;5040813;28;20438;-68
2023/12/03 07:31:47;;;;;;;32.30;17.00;;;;;;;;;;5045426;28;20831;-68
2023/12/03 07:34:15;;;;;;;35.97;18.05;;;;;;;;;;5048118;28;21197;-68
2023/12/03 07:36:45;;;;;;;33.53;17.85;;;;;;;;;;5044651;28;20421;-67
2023/12/03 07:39:13;;;;;;;34.78;17.45;;;;;;;;;;5058631;28;20508;-68
2023/12/03 07:41:42;;;;;;;38.10;18.35;;;;;;;;;;5049269;28;20433;-67
2023/12/03 07:44:12;;;;;;;35.80;17.55;;;;;;;;;;5052784;28;20509;-67
2023/12/03 07:46:40;;;;;;;37.45;18.83;;;;;;;;;;5042167;28;20425;-67
2023/12/03 07:49:10;;;;;;;35.75;18.10;;;;;;;;;;5032357;28;20426;-67
2023/12/03 07:51:37;;;;;;;36.43;18.20;;;;;;;;;;5046552;28;20533;-67
2023/12/03 07:54:04;;;;;;;32.75;17.95;;;;;;;;;;5041545;28;20903;-68
2023/12/03 07:56:37;;;;;;;33.33;17.83;;;;;;;;;;5054943;28;20432;-67
2023/12/03 07:59:05;;;;;;;31.58;16.85;;;;;;;;;;5046737;28;20495;-68
2023/12/03 08:01:32;;;;;;;31.10;17.00;;;;;;;;;;5048746;28;20447;-67
2023/12/03 08:03:59;;;;;;;31.23;16.20;;;;;;;;;;5041363;28;20933;-68
2023/12/03 08:06:27;;;;;;;30.33;16.20;;;;;;;;;;5047406;28;20435;-66
2023/12/03 08:08:54;;;;;;;29.80;16.30;;;;;;;;;;5066614;28;20435;-67
2023/12/03 08:11:24;;;;;;;28.05;15.48;;;;;;;;;;5063665;28;20459;-68
2023/12/03 08:13:52;;;;;;;29.70;15.98;;;;;;;;;;5044801;28;20457;-67
2023/12/03 08:16:19;;;;;;;28.25;16.17;;;;;;;;;;5040948;28;20433;-69
2023/12/03 08:18:47;;;;;;;27.60;15.50;;;;;;;;;;5065409;28;20871;-67
2023/12/03 08:21:15;;;;;;;27.85;15.85;;;;;;;;;;5051444;28;20433;-67
2023/12/03 08:23:43;;;;;;;27.08;15.30;;;;;;;;;;5051328;28;20519;-67
2023/12/03 08:26:10;;;;;;;26.92;14.98;;;;;;;;;;5046952;28;20491;-67
2023/12/03 08:28:37;;;;;;;23.73;14.45;;;;;;;;;;5056901;28;20433;-67
2023/12/03 08:31:05;;;;;;;27.73;15.65;;;;;;;;;;5043359;28;20433;-67
2023/12/03 08:33:32;;;;;;;27.13;14.93;;;;;;;;;;5041806;28;20461;-67
2023/12/03 08:35:59;;;;;;;25.27;14.93;;;;;;;;;;5045670;28;20456;-67
2023/12/03 08:38:29;;;;;;;25.70;15.20;;;;;;;;;;5049960;28;20432;-67
2023/12/03 08:40:56;;;;;;;26.05;15.45;;;;;;;;;;5047256;28;20429;-67
2023/12/03 08:43:26;;;;;;;26.08;15.60;;;;;;;;;;5050246;28;20431;-67
2023/12/03 08:45:54;;;;;;;25.03;14.43;;;;;;;;;;5061857;28;20445;-67
2023/12/03 08:48:23;;;;;;;26.80;15.23;;;;;;;;;;5050216;28;20510;-67
2023/12/03 08:50:51;;;;;;;25.08;14.70;;;;;;;;;;5046404;28;20430;-66
2023/12/03 08:53:18;;;;;;;23.70;14.47;;;;;;;;;;5044062;28;20421;-66
2023/12/03 08:55:45;;;;;;;25.10;14.52;;;;;;;;;;5050322;28;20435;-66
2023/12/03 08:58:12;;;;;;;25.23;14.68;;;;;;;;;;5052286;28;20502;-66
2023/12/03 09:00:39;;;;;;;21.52;14.27;;;;;;;;;;5042503;28;20440;-66
2023/12/03 09:03:10;;;;;;;26.33;15.27;;;;;;;;;;5055696;28;20906;-66
2023/12/03 09:05:39;;;;;;;24.42;14.80;;;;;;;;;;5036748;28;20437;-66
2023/12/03 09:08:07;;;;;;;27.10;15.00;;;;;;;;;;5034533;28;20516;-66
2023/12/03 09:10:40;;;;;;;24.30;14.57;;;;;;;;;;5046150;28;20437;-66
2023/12/03 09:13:07;;;;;;;24.38;14.25;;;;;;;;;;5047457;28;20439;-66
2023/12/03 09:15:34;;;;;;;24.85;14.93;;;;;;;;;;5045629;28;20434;-66
2023/12/03 09:18:01;;;;;;;23.60;15.15;;;;;;;;;;5042409;28;20800;-66
2023/12/03 09:20:29;;;;;;;24.98;14.80;;;;;;;;;;5057713;28;20517;-66
2023/12/03 09:22:56;;;;;;;22.43;14.00;;;;;;;;;;5048257;28;20508;-66
2023/12/03 09:25:23;;;;;;;23.65;14.15;;;;;;;;;;5057267;28;20490;-66
2023/12/03 09:27:50;;;;;;;23.85;14.10;;;;;;;;;;5051230;28;20423;-66
2023/12/03 09:30:17;;;;;;;24.60;14.70;;;;;;;;;;5049185;28;20457;-66
2023/12/03 09:32:48;;;;;;;22.92;13.88;;;;;;;;;;5049051;28;20563;-64
2023/12/03 09:35:15;;;;;;;22.58;13.75;;;;;;;;;;5055160;28;20480;-64
2023/12/03 09:37:42;;;;;;;23.52;14.55;;;;;;;;;;5042287;28;20868;-64
2023/12/03 09:40:10;;;;;;;23.70;14.32;;;;;;;;;;5048452;28;20509;-65
2023/12/03 09:42:39;;;;;;;22.20;14.10;;;;;;;;;;5056593;28;20427;-65
2023/12/03 09:45:09;;;;;;;25.88;14.82;;;;;;;;;;5057788;28;20429;-65
2023/12/03 09:47:37;;;;;;;23.10;13.82;;;;;;;;;;5049350;28;20461;-65
2023/12/03 09:50:05;;;;;;;22.17;13.57;;;;;;;;;;5054743;28;20427;-65
2023/12/03 09:52:35;;;;;;;22.38;14.00;;;;;;;;;;5049845;28;20927;-65
2023/12/03 09:55:03;;;;;;;23.52;14.30;;;;;;;;;;5051720;28;20429;-65
2023/12/03 09:57:31;;;;;;;22.45;13.93;;;;;;;;;;5041147;28;20429;-65
2023/12/03 10:00:00;;;;;;;23.83;14.25;;;;;;;;;;5028804;28;20451;-65
2023/12/03 10:02:28;;;;;;;23.33;13.87;;;;;;;;;;5060401;28;20484;-65
2023/12/03 10:04:56;;;;;;;22.50;13.80;;;;;;;;;;5048273;28;20455;-65
2023/12/03 10:07:30;;;;;;;22.92;13.88;;;;;;;;;;5029061;28;20793;-65
2023/12/03 10:10:00;;;;;;;22.58;13.55;;;;;;;;;;5056535;28;20429;-65
2023/12/03 10:12:41;;;;;;;23.27;14.80;;;;;;;;;;5054180;28;20446;-65
2023/12/03 10:15:11;;;;;;;22.40;14.07;;;;;;;;;;5038293;28;20433;-64
2023/12/03 10:17:41;;;;;;;20.77;13.18;;;;;;;;;;5035409;28;20424;-64
2023/12/03 10:20:22;;;;;;;22.88;14.32;;;;;;;;;;5042816;28;20438;-65
2023/12/03 10:22:52;;;;;;;22.25;13.82;;;;;;;;;;5040105;28;20524;-65
2023/12/03 10:25:26;;;;;;;20.42;13.10;;;;;;;;;;5020988;28;20523;-65
2023/12/03 10:28:00;;;;;;;21.38;13.70;;;;;;;;;;5046687;28;20440;-65
2023/12/03 10:30:30;;;;;;;21.67;13.83;;;;;;;;;;5046263;28;20429;-65
2023/12/03 10:33:06;;;;;;;20.10;13.52;;;;;;;;;;5035237;28;20508;-65
2023/12/03 10:35:37;;;;;;;21.77;14.03;;;;;;;;;;5041074;28;20515;-65
2023/12/03 10:38:10;;;;;;;19.93;12.70;;;;;;;;;;5041655;28;20425;-65
2023/12/03 10:40:37;;;;;;;20.60;13.52;;;;;;;;;;5042732;28;20508;-64
2023/12/03 10:43:11;;;;;;;19.90;13.60;;;;;;;;;;5026490;28;20441;-64
2023/12/03 10:45:38;;;;;;;20.77;13.30;;;;;;;;;;5023241;28;20490;-64
2023/12/03 10:48:06;;;;;;;21.40;13.88;;;;;;;;;;5029474;28;20444;-65
2023/12/03 10:50:37;;;;;;;21.48;13.43;;;;;;;;;;5036526;28;20532;-64
2023/12/03 10:53:04;;;;;;;19.73;13.02;;;;;;;;;;5038289;28;20499;-65
2023/12/03 10:55:32;;;;;;;19.48;13.35;;;;;;;;;;5047455;28;20516;-65
2023/12/03 10:58:02;;;;;;;19.70;13.40;;;;;;;;;;5032438;28;20780;-65
2023/12/03 11:00:33;;;;;;;19.45;13.40;;;;;;;;;;5041022;28;20584;-65
2023/12/03 11:03:22;;;;;;;18.40;12.52;;;;;;;;;;5019671;28;21003;-64
2023/12/03 11:05:53;;;;;;;20.92;13.10;;;;;;;;;;5038629;28;20474;-65
2023/12/03 11:08:21;;;;;;;20.15;13.23;;;;;;;;;;5041879;28;20448;-65
2023/12/03 11:10:50;;;;;;;18.30;12.80;;;;;;;;;;5028379;28;20524;-65
2023/12/03 11:13:17;;;;;;;20.38;12.70;;;;;;;;;;5042872;28;20462;-65
2023/12/03 11:15:57;;;;;;;19.98;12.88;;;;;;;;;;5038193;28;20448;-65
2023/12/03 11:18:28;;;;;;;19.10;12.40;;;;;;;;;;5040145;28;20456;-65
2023/12/03 11:21:04;;;;;;;20.33;12.90;;;;;;;;;;5047298;28;20426;-65
2023/12/03 11:23:34;;;;;;;19.25;13.00;;;;;;;;;;5047656;28;20421;-65
2023/12/03 11:26:14;;;;;;;20.70;12.98;;;;;;;;;;5026245;28;20899;-65
2023/12/03 11:28:53;;;;;;;20.23;12.33;;;;;;;;;;5023766;28;20452;-65
2023/12/03 11:31:27;;;;;;;20.70;12.98;;;;;;;;;;5044858;28;20438;-65
2023/12/03 11:34:04;;;;;;;19.60;12.27;;;;;;;;;;5049728;28;20433;-65
2023/12/03 11:36:48;;;;;;;18.88;12.75;;;;;;;;;;5044722;28;20429;-65
2023/12/03 11:39:22;;;;;;;18.75;12.27;;;;;;;;;;5048177;28;20433;-65
2023/12/03 11:41:58;;;;;;;19.10;12.53;;;;;;;;;;5045403;28;20444;-65
2023/12/03 11:44:28;;;;;;;18.70;12.35;;;;;;;;;;5047987;28;20437;-65
2023/12/03 11:47:03;;;;;;;20.52;12.35;;;;;;;;;;5046071;28;20479;-65
2023/12/03 11:49:36;;;;;;;19.50;12.35;;;;;;;;;;5049521;28;20579;-64
2023/12/03 11:52:03;;;;;;;18.95;12.02;;;;;;;;;;5047932;28;20535;-65
2023/12/03 11:54:43;;;;;;;18.60;12.50;;;;;;;;;;5049522;28;20487;-66
2023/12/03 11:57:14;;;;;;;18.63;11.90;;;;;;;;;;5036905;28;20419;-66
2023/12/03 11:59:44;;;;;;;18.75;12.18;;;;;;;;;;5050939;28;20467;-66
2023/12/03 12:02:12;;;;;;;16.83;11.60;;;;;;;;;;5060668;28;20510;-66
2023/12/03 12:04:39;;;;;;;18.55;12.65;;;;;;;;;;5030817;28;20437;-66
2023/12/03 12:07:16;;;;;;;18.27;12.35;;;;;;;;;;5035164;28;20523;-65
2023/12/03 12:09:48;;;;;;;18.10;12.23;;;;;;;;;;5042298;28;20460;-66
2023/12/03 12:12:16;;;;;;;19.23;12.77;;;;;;;;;;5048464;28;20512;-65
2023/12/03 12:14:44;;;;;;;18.70;12.45;;;;;;;;;;5028362;28;20427;-65
2023/12/03 12:17:12;;;;;;;20.25;12.52;;;;;;;;;;5038144;28;20831;-65
2023/12/03 12:19:45;;;;;;;19.20;12.25;;;;;;;;;;5039105;28;20957;-66
2023/12/03 12:22:13;;;;;;;19.45;12.23;;;;;;;;;;5048426;28;20437;-65
2023/12/03 12:24:42;;;;;;;17.08;11.65;;;;;;;;;;5043576;28;20566;-65
2023/12/03 12:27:09;;;;;;;18.13;11.88;;;;;;;;;;5038819;28;20475;-66
2023/12/03 12:29:36;;;;;;;18.20;12.23;;;;;;;;;;5042154;28;20479;-66
2023/12/03 12:32:04;;;;;;;18.13;11.65;;;;;;;;;;5042357;28;20832;-65
2023/12/03 12:34:33;;;;;;;18.23;12.57;;;;;;;;;;5047684;28;20791;-65
2023/12/03 12:37:05;;;;;;;18.52;12.20;;;;;;;;;;5046740;28;20510;-65
2023/12/03 12:39:32;;;;;;;20.13;12.70;;;;;;;;;;5027849;28;20429;-65
2023/12/03 12:42:00;;;;;;;19.10;11.97;;;;;;;;;;5027188;28;20436;-65
2023/12/03 12:44:45;;;;;;;18.27;11.65;;;;;;;;;;5032199;28;20434;-65
2023/12/03 12:47:19;;;;;;;18.88;11.98;;;;;;;;;;5045045;28;20425;-66
2023/12/03 12:49:53;;;;;;;18.37;12.37;;;;;;;;;;5053354;28;20435;-65
2023/12/03 12:52:24;;;;;;;20.43;12.23;;;;;;;;;;5054095;28;20435;-65
2023/12/03 12:54:53;;;;;;;17.58;12.05;;;;;;;;;;5047888;28;20435;-66
2023/12/03 12:57:29;;;;;;;19.40;12.67;;;;;;;;;;5048736;28;20824;-66
2023/12/03 13:00:00;;;;;;;19.27;12.43;;;;;;;;;;5049031;28;20499;-65
2023/12/03 13:02:27;;;;;;;18.97;12.17;;;;;;;;;;5059594;28;20502;-65
2023/12/03 13:04:54;;;;;;;20.10;12.10;;;;;;;;;;5048827;28;20809;-65
2023/12/03 13:07:21;;;;;;;19.33;11.82;;;;;;;;;;5060088;28;20427;-65
2023/12/03 13:09:48;;;;;;;18.10;11.95;;;;;;;;;;5057795;28;20449;-65
2023/12/03 13:12:16;;;;;;;17.70;11.57;;;;;;;;;;5053939;28;20435;-65
2023/12/03 13:14:45;;;;;;;16.60;11.15;;;;;;;;;;5038977;28;21173;-65
2023/12/03 13:17:12;;;;;;;17.83;11.30;;;;;;;;;;5057007;28;20886;-65
2023/12/03 13:19:40;;;;;;;19.52;11.70;;;;;;;;;;5031047;28;20483;-65
2023/12/03 13:22:07;;;;;;;20.90;12.30;;;;;;;;;;5056590;28;20485;-63
2023/12/03 13:24:34;;;;;;;18.70;11.63;;;;;;;;;;5048478;28;20491;-64
2023/12/03 13:27:02;;;;;;;20.63;12.00;;;;;;;;;;5056851;28;20440;-64
2023/12/03 13:29:29;;;;;;;19.80;11.80;;;;;;;;;;5043948;28;20439;-64
2023/12/03 13:31:56;;;;;;;18.45;11.05;;;;;;;;;;5055695;28;20429;-64
2023/12/03 13:34:23;;;;;;;20.13;12.32;;;;;;;;;;5050147;28;20433;-64
2023/12/03 13:36:51;;;;;;;19.95;11.55;;;;;;;;;;5046818;28;20531;-64
2023/12/03 13:39:18;;;;;;;19.85;12.05;;;;;;;;;;5047239;28;20430;-65
2023/12/03 13:41:46;;;;;;;19.90;12.48;;;;;;;;;;5052977;28;20519;-64
2023/12/03 13:44:13;;;;;;;20.27;12.00;;;;;;;;;;5050908;28;20428;-64
2023/12/03 13:46:43;;;;;;;21.42;12.93;;;;;;;;;;5046976;28;20504;-64
2023/12/03 13:49:11;;;;;;;21.42;13.00;;;;;;;;;;5046481;28;20461;-67
2023/12/03 13:51:38;;;;;;;21.58;13.05;;;;;;;;;;5050996;28;20461;-64
2023/12/03 13:54:05;;;;;;;22.00;13.18;;;;;;;;;;5068633;28;20477;-64
2023/12/03 13:56:32;;;;;;;21.00;13.43;;;;;;;;;;5041556;28;20425;-64
2023/12/03 13:59:00;;;;;;;23.67;13.68;;;;;;;;;;5044570;28;20436;-64
2023/12/03 14:01:27;;;;;;;21.93;12.67;;;;;;;;;;5057809;28;20601;-64
2023/12/03 14:04:00;;;;;;;21.10;12.35;;;;;;;;;;5054088;28;20435;-64
2023/12/03 14:06:27;;;;;;;23.23;13.45;;;;;;;;;;5050538;28;20430;-63
2023/12/03 14:08:55;;;;;;;23.02;12.77;;;;;;;;;;5051727;28;20529;-64
2023/12/03 14:11:22;;;;;;;20.55;12.32;;;;;;;;;;5047546;28;20441;-64
2023/12/03 14:13:49;;;;;;;20.70;13.05;;;;;;;;;;5048797;28;20429;-64
2023/12/03 14:16:16;;;;;;;20.73;12.75;;;;;;;;;;5064665;28;21004;-65
2023/12/03 14:18:43;;;;;;;23.67;13.13;;;;;;;;;;5056167;28;20477;-64
2023/12/03 14:21:11;;;;;;;21.38;13.25;;;;;;;;;;5052567;28;20458;-64
2023/12/03 14:23:39;;;;;;;21.20;12.75;;;;;;;;;;5059583;28;20521;-64
2023/12/03 14:26:06;;;;;;;21.08;12.88;;;;;;;;;;5063197;28;20503;-64